Time;durP1;ratioP1;P1;durP2;ratioP2;P2;SDS_P1;SDS_P2;PMS_P1;PMS_P2;Temp;Humidity;BMP_temperature;BMP_pressure;BME280_temperature;BME280_humidity;BME280_pressure;Samples;Min_cycle;Max_cycle;Signal;HPM_P1;HPM_P2
2024/04/16 00:00:39;;;;;;;3.63;0.88;;;;;;;18.83;41.17;100189.53;5400301;26;20421;-69
2024/04/16 00:03:05;;;;;;;3.35;1.00;;;;;;;19.08;40.94;100228.66;5397654;26;20040;-71
2024/04/16 00:05:30;;;;;;;3.80;0.90;;;;;;;19.09;41.00;100222.38;5400378;26;20028;-68
2024/04/16 00:07:59;;;;;;;3.92;0.90;;;;;;;18.97;40.99;100208.56;5400255;26;20006;-70
2024/04/16 00:10:25;;;;;;;3.22;1.08;;;;;;;18.96;41.11;100198.97;5400107;26;20023;-71
2024/04/16 00:12:50;;;;;;;3.85;1.10;;;;;;;19.09;40.69;100215.31;5398908;26;19998;-69
2024/04/16 00:15:16;;;;;;;4.57;1.15;;;;;;;19.10;40.71;100216.97;5399826;26;20037;-68
2024/04/16 00:17:44;;;;;;;4.22;0.93;;;;;;;19.05;40.90;100197.25;5399866;26;20869;-74
2024/04/16 00:20:10;;;;;;;2.28;0.60;;;;;;;19.07;40.90;100196.13;5399725;26;19991;-69
2024/04/16 00:22:35;;;;;;;3.15;0.73;;;;;;;19.06;40.78;100205.03;5400278;26;20041;-69
2024/04/16 00:25:01;;;;;;;4.05;1.00;;;;;;;18.87;41.03;100173.41;5400370;26;19991;-69
2024/04/16 00:27:26;;;;;;;3.03;0.80;;;;;;;19.01;40.86;100189.63;5400518;26;20362;-70
2024/04/16 00:29:52;;;;;;;5.18;1.17;;;;;;;18.98;40.88;100200.47;5399795;26;19995;-70
2024/04/16 00:32:17;;;;;;;3.35;0.90;;;;;;;19.05;40.62;100195.44;5399989;26;20472;-67
2024/04/16 00:34:43;;;;;;;3.10;0.90;;;;;;;18.99;40.96;100186.31;5400064;26;21043;-69
2024/04/16 00:37:08;;;;;;;3.03;0.70;;;;;;;19.00;40.95;100181.84;5397740;26;19992;-71
2024/04/16 00:39:33;;;;;;;4.45;1.00;;;;;;;19.00;40.71;100173.94;5400016;26;20030;-72
2024/04/16 00:41:59;;;;;;;3.40;1.10;;;;;;;18.98;40.73;100170.63;5400127;26;20007;-70
2024/04/16 00:44:24;;;;;;;3.95;1.00;;;;;;;18.92;40.60;100169.38;5399517;26;19995;-71
2024/04/16 00:46:50;;;;;;;4.88;1.00;;;;;;;19.01;40.33;100170.31;5399831;26;20435;-69
2024/04/16 00:49:16;;;;;;;2.97;1.00;;;;;;;18.94;40.43;100161.31;5400022;26;20003;-73
2024/04/16 00:51:42;;;;;;;2.83;0.80;;;;;;;18.96;40.64;100159.34;5399376;26;20752;-72
2024/04/16 00:54:08;;;;;;;3.42;1.00;;;;;;;18.92;40.67;100148.25;5399987;26;20437;-70
2024/04/16 00:56:35;;;;;;;3.13;0.82;;;;;;;18.96;40.32;100139.06;5399777;26;20007;-69
2024/04/16 00:59:02;;;;;;;2.90;1.00;;;;;;;18.82;40.33;100115.78;5398269;26;19988;-69
2024/04/16 01:01:27;;;;;;;2.85;0.80;;;;;;;18.91;40.24;100130.75;5399153;26;19995;-72
2024/04/16 01:03:53;;;;;;;4.80;1.00;;;;;;;18.87;40.38;100120.63;5398406;26;19996;-69
2024/04/16 01:06:19;;;;;;;2.53;0.98;;;;;;;18.88;40.50;100128.38;5399227;26;19991;-69
2024/04/16 01:08:44;;;;;;;3.97;1.00;;;;;;;18.79;40.08;100116.06;5399240;26;20035;-69
2024/04/16 01:11:09;;;;;;;3.05;1.00;;;;;;;18.93;40.47;100127.97;5397683;26;19999;-69
2024/04/16 01:13:35;;;;;;;2.67;0.82;;;;;;;18.83;40.40;100112.13;5397841;26;20038;-69
2024/04/16 01:16:00;;;;;;;2.88;0.88;;;;;;;18.89;40.19;100122.16;5399406;26;20003;-71
2024/04/16 01:18:25;;;;;;;3.25;0.90;;;;;;;18.91;40.20;100124.63;5394448;26;20011;-70
2024/04/16 01:20:51;;;;;;;3.38;0.93;;;;;;;18.88;40.26;100130.22;5398851;26;19995;-72
2024/04/16 01:23:16;;;;;;;4.50;1.00;;;;;;;18.78;40.42;100130.22;5399946;26;20000;-73
2024/04/16 01:25:42;;;;;;;3.65;1.02;;;;;;;18.78;40.38;100140.78;5398665;26;20905;-70
2024/04/16 01:28:07;;;;;;;3.50;0.80;;;;;;;18.75;40.06;100127.88;5399076;26;20453;-71
2024/04/16 01:30:32;;;;;;;3.35;1.20;;;;;;;18.80;40.27;100128.25;5399430;26;20033;-72
2024/04/16 01:32:58;;;;;;;2.83;0.90;;;;;;;18.76;40.09;100129.56;5398601;26;20010;-68
2024/04/16 01:35:23;;;;;;;2.58;1.05;;;;;;;18.81;40.31;100133.41;5399156;26;20032;-71
2024/04/16 01:37:49;;;;;;;4.40;1.17;;;;;;;18.73;40.40;100143.03;5399681;26;20035;-68
2024/04/16 01:40:15;;;;;;;4.45;1.10;;;;;;;18.71;40.36;100130.00;5399058;26;19996;-69
2024/04/16 01:42:40;;;;;;;2.88;0.80;;;;;;;18.78;40.13;100164.53;5399240;26;20049;-68
2024/04/16 01:45:06;;;;;;;2.97;0.60;;;;;;;18.76;40.38;100159.41;5397189;26;20021;-69
2024/04/16 01:47:31;;;;;;;2.78;0.70;;;;;;;18.79;40.53;100148.56;5398672;26;20008;-73
2024/04/16 01:49:56;;;;;;;2.97;0.90;;;;;;;18.65;40.50;100109.44;5398738;26;20326;-69
2024/04/16 01:52:22;;;;;;;3.40;0.90;;;;;;;18.71;40.65;100108.03;5399331;26;20000;-72
2024/04/16 01:54:47;;;;;;;3.00;0.93;;;;;;;18.61;40.38;100084.31;5396096;26;20071;-69
2024/04/16 01:57:12;;;;;;;3.58;0.90;;;;;;;18.78;40.67;100111.75;5397250;26;20000;-72
2024/04/16 01:59:37;;;;;;;2.28;0.60;;;;;;;18.77;40.48;100118.84;5399253;26;20000;-69
2024/04/16 02:02:03;;;;;;;3.00;0.80;;;;;;;18.73;40.31;100101.63;5395878;26;20007;-72
2024/04/16 02:04:29;;;;;;;2.80;0.90;;;;;;;18.65;40.47;100098.91;5398937;26;20002;-68
2024/04/16 02:06:54;;;;;;;3.15;1.20;;;;;;;18.58;40.66;100079.34;5398704;26;19998;-68
2024/04/16 02:09:19;;;;;;;3.00;1.00;;;;;;;18.61;40.35;100086.97;5398280;26;20041;-71
2024/04/16 02:11:45;;;;;;;2.97;0.85;;;;;;;18.64;40.52;100086.66;5398459;26;20067;-69
2024/04/16 02:14:10;;;;;;;3.00;0.70;;;;;;;18.65;40.60;100077.78;5399023;26;20005;-71
2024/04/16 02:16:36;;;;;;;4.07;1.30;;;;;;;18.46;40.29;100050.50;5397763;26;20559;-69
2024/04/16 02:19:01;;;;;;;3.25;0.85;;;;;;;18.70;40.49;100083.44;5397755;26;20610;-70
2024/04/16 02:21:26;;;;;;;2.55;0.90;;;;;;;18.68;40.74;100075.69;5398039;26;19995;-69
2024/04/16 02:23:52;;;;;;;2.88;0.93;;;;;;;18.66;40.71;100064.44;5398532;26;20003;-68
2024/04/16 02:26:17;;;;;;;2.38;0.73;;;;;;;18.61;40.78;100063.22;5398736;26;19992;-68
2024/04/16 02:28:42;;;;;;;3.13;1.00;;;;;;;18.62;40.70;100065.69;5398097;26;20030;-69
2024/04/16 02:31:08;;;;;;;2.95;1.10;;;;;;;18.68;40.66;100077.50;5398112;26;20437;-71
2024/04/16 02:33:33;;;;;;;3.30;0.98;;;;;;;18.62;40.68;100056.97;5398787;26;20006;-72
2024/04/16 02:36:03;;;;;;;2.95;1.00;;;;;;;18.47;40.43;100040.78;5397864;26;20029;-69
2024/04/16 02:38:28;;;;;;;4.47;1.08;;;;;;;18.66;40.68;100074.19;5398488;26;19995;-69
2024/04/16 02:40:55;;;;;;;2.35;0.70;;;;;;;18.66;40.46;100063.63;5396671;26;20002;-70
2024/04/16 02:43:20;;;;;;;3.60;1.00;;;;;;;18.60;40.45;100054.47;5397029;26;20069;-69
2024/04/16 02:45:45;;;;;;;3.15;0.82;;;;;;;18.56;40.65;100060.19;5397933;26;20008;-71
2024/04/16 02:48:11;;;;;;;2.33;0.90;;;;;;;18.57;40.51;100056.56;5397146;26;19996;-69
2024/04/16 02:50:36;;;;;;;2.78;0.80;;;;;;;18.21;40.30;100003.69;5397947;26;20414;-70
2024/04/16 02:53:01;;;;;;;3.70;0.90;;;;;;;18.55;40.40;100050.59;5398166;26;19991;-69
2024/04/16 02:55:27;;;;;;;3.10;0.80;;;;;;;18.54;40.40;100036.59;5398088;26;19998;-70
2024/04/16 02:57:52;;;;;;;5.72;1.08;;;;;;;18.52;40.48;100035.91;5397391;26;20023;-68
2024/04/16 03:00:17;;;;;;;3.63;1.05;;;;;;;18.58;40.59;100048.50;5396126;26;19999;-70
2024/04/16 03:02:43;;;;;;;2.80;0.80;;;;;;;18.42;40.52;100008.72;5393575;26;19999;-69
2024/04/16 03:05:08;;;;;;;3.03;0.88;;;;;;;18.51;40.48;100026.31;5396195;26;20023;-69
2024/04/16 03:07:33;;;;;;;3.00;0.80;;;;;;;18.60;40.48;100043.91;5398294;26;20000;-69
2024/04/16 03:10:00;;;;;;;3.90;1.15;;;;;;;18.56;40.72;100037.25;5397462;26;20347;-69
2024/04/16 03:12:25;;;;;;;3.35;0.80;;;;;;;18.53;40.48;100037.53;5397553;26;19996;-69
2024/04/16 03:14:53;;;;;;;3.08;0.98;;;;;;;18.52;40.80;100025.34;5397343;26;20084;-70
2024/04/16 03:17:19;;;;;;;3.60;1.20;;;;;;;18.51;40.83;100023.69;5395704;26;20007;-69
2024/04/16 03:19:45;;;;;;;2.97;1.10;;;;;;;18.46;40.52;100021.47;5396830;26;19995;-68
2024/04/16 03:22:10;;;;;;;3.25;0.80;;;;;;;18.58;40.35;100037.09;5398019;26;20011;-72
2024/04/16 03:24:35;;;;;;;2.58;0.80;;;;;;;18.42;40.64;100014.00;5397930;26;20008;-69
2024/04/16 03:27:01;;;;;;;3.75;1.30;;;;;;;18.42;40.72;100014.84;5396511;26;20062;-74
2024/04/16 03:29:26;;;;;;;3.58;1.20;;;;;;;18.42;40.73;100017.50;5397536;26;19999;-69
2024/04/16 03:31:51;;;;;;;3.08;1.00;;;;;;;18.47;40.65;100024.97;5396477;26;20407;-69
2024/04/16 03:34:17;;;;;;;3.13;0.93;;;;;;;18.48;40.49;100016.06;5397681;26;20011;-69
2024/04/16 03:36:42;;;;;;;4.00;1.00;;;;;;;18.54;40.97;100025.19;5395350;26;20007;-70
2024/04/16 03:39:07;;;;;;;3.15;1.15;;;;;;;18.53;40.67;100021.72;5396905;26;19996;-68
2024/04/16 03:41:32;;;;;;;3.72;1.10;;;;;;;18.43;40.58;100005.13;5396949;26;20411;-69
2024/04/16 03:43:58;;;;;;;2.58;0.93;;;;;;;18.49;40.57;100020.38;5455826;26;20011;-68
2024/04/16 03:46:23;;;;;;;2.58;0.80;;;;;;;18.43;40.77;99997.22;5396772;26;20009;-69
2024/04/16 03:48:48;;;;;;;3.78;0.90;;;;;;;18.42;40.73;99991.09;5395288;26;19996;-69
2024/04/16 03:51:14;;;;;;;2.95;0.80;;;;;;;18.43;40.86;99992.75;5397264;26;20032;-69
2024/04/16 03:53:39;;;;;;;2.78;0.70;;;;;;;18.51;40.76;99996.47;5396226;26;19995;-72
2024/04/16 03:56:05;;;;;;;2.97;1.00;;;;;;;18.46;40.60;99989.81;5399346;26;20448;-69
2024/04/16 03:58:32;;;;;;;2.17;0.70;;;;;;;18.49;40.70;99986.88;5400754;26;20373;-70
2024/04/16 04:01:00;;;;;;;2.35;0.70;;;;;;;18.49;40.56;99989.53;5399776;26;20057;-71
2024/04/16 04:03:26;;;;;;;3.25;1.25;;;;;;;18.49;40.66;99984.25;5399489;26;20003;-69
2024/04/16 04:05:52;;;;;;;3.15;0.90;;;;;;;18.37;40.75;99960.84;5400146;26;21153;-71
2024/04/16 04:08:17;;;;;;;2.33;0.70;;;;;;;18.36;40.72;99957.41;5400019;26;19995;-69
2024/04/16 04:10:42;;;;;;;2.97;0.80;;;;;;;18.37;40.65;99955.59;5400596;26;20012;-69
2024/04/16 04:13:08;;;;;;;2.42;0.80;;;;;;;18.47;40.70;99959.81;5401010;26;20007;-69
2024/04/16 04:15:33;;;;;;;2.38;0.80;;;;;;;18.43;40.96;99955.00;5399489;26;20403;-69
2024/04/16 04:17:58;;;;;;;2.65;0.77;;;;;;;18.36;40.72;99944.22;5400278;26;20032;-71
2024/04/16 04:20:24;;;;;;;3.00;0.90;;;;;;;18.46;40.76;99959.97;5400119;26;19995;-69
2024/04/16 04:22:49;;;;;;;2.65;1.00;;;;;;;18.48;40.89;99966.78;5398684;26;19996;-72
2024/04/16 04:25:15;;;;;;;3.72;1.00;;;;;;;18.40;40.75;99950.84;5400382;26;19996;-73
2024/04/16 04:27:41;;;;;;;2.90;0.82;;;;;;;18.46;40.86;99967.88;5400801;26;21382;-70
2024/04/16 04:30:10;;;;;;;2.53;0.95;;;;;;;18.41;40.68;99947.22;5397530;26;20000;-70
2024/04/16 04:32:35;;;;;;;3.15;0.90;;;;;;;18.47;40.57;99966.94;5400345;26;19999;-70
2024/04/16 04:35:01;;;;;;;2.88;0.80;;;;;;;18.46;40.82;99971.34;5397752;26;20431;-70
2024/04/16 04:37:27;;;;;;;2.47;0.90;;;;;;;18.40;40.65;99952.66;5400117;26;19991;-74
2024/04/16 04:39:53;;;;;;;3.40;0.82;;;;;;;18.33;40.64;99933.13;5400161;26;20000;-69
2024/04/16 04:42:18;;;;;;;3.17;0.85;;;;;;;18.42;40.72;99943.63;5399677;26;20010;-69
2024/04/16 04:44:43;;;;;;;4.28;0.90;;;;;;;18.44;40.70;99938.19;5399644;26;20006;-71
2024/04/16 04:47:09;;;;;;;2.17;0.70;;;;;;;18.45;40.96;99953.03;5400376;26;20406;-70
2024/04/16 04:49:34;;;;;;;3.22;0.80;;;;;;;18.32;40.88;99934.91;5397830;26;20097;-69
2024/04/16 04:51:59;;;;;;;2.80;0.80;;;;;;;18.28;40.73;99925.66;5399636;26;19995;-71
2024/04/16 04:54:28;;;;;;;4.85;0.90;;;;;;;18.42;40.79;99954.19;5400349;26;20349;-73
2024/04/16 04:56:53;;;;;;;3.80;1.02;;;;;;;18.39;40.86;99940.44;5398970;26;20006;-70
2024/04/16 04:59:18;;;;;;;2.95;0.90;;;;;;;18.30;40.68;99924.50;5400064;26;19995;-70
2024/04/16 05:01:44;;;;;;;3.00;1.00;;;;;;;18.29;40.99;99928.16;5398120;26;20380;-69
2024/04/16 05:04:09;;;;;;;2.30;0.70;;;;;;;18.41;41.04;99952.50;5398897;26;20441;-73
2024/04/16 05:06:37;;;;;;;2.95;0.75;;;;;;;18.31;40.70;99933.28;5398433;26;20361;-69
2024/04/16 05:09:02;;;;;;;3.10;0.80;;;;;;;18.36;40.83;99936.28;5399675;26;20007;-71
2024/04/16 05:11:28;;;;;;;2.38;0.80;;;;;;;18.41;40.88;99935.84;5399320;26;20065;-69
2024/04/16 05:13:53;;;;;;;1.83;0.50;;;;;;;18.29;40.88;99928.16;5399482;26;19995;-71
2024/04/16 05:16:18;;;;;;;1.95;0.77;;;;;;;18.30;41.08;99924.50;5398431;26;19999;-70
2024/04/16 05:18:43;;;;;;;2.45;0.70;;;;;;;18.40;41.00;99921.81;5398149;26;20003;-72
2024/04/16 05:21:10;;;;;;;2.03;0.70;;;;;;;18.33;41.35;99904.13;5399529;26;20011;-70
2024/04/16 05:23:35;;;;;;;2.83;0.75;;;;;;;18.36;41.32;99909.06;5400001;26;20010;-70
2024/04/16 05:26:02;;;;;;;2.85;0.90;;;;;;;18.37;41.58;99911.56;5398491;26;20520;-70
2024/04/16 05:28:34;;;;;;;2.55;0.60;;;;;;;18.48;41.58;99921.06;5399837;26;19999;-72
2024/04/16 05:31:00;;;;;;;3.47;0.80;;;;;;;18.50;41.53;99913.88;5399653;26;20005;-70
2024/04/16 05:33:26;;;;;;;2.00;0.70;;;;;;;18.49;41.73;99902.47;5398966;26;19996;-70
2024/04/16 05:35:51;;;;;;;1.52;0.50;;;;;;;18.39;41.63;99885.03;5399542;26;20345;-70
2024/04/16 05:38:16;;;;;;;3.47;0.77;;;;;;;18.52;42.03;99896.06;5399370;26;19999;-70
2024/04/16 05:40:42;;;;;;;1.55;0.60;;;;;;;18.51;41.66;99891.75;5398795;26;20038;-71
2024/04/16 05:43:07;;;;;;;1.63;0.70;;;;;;;18.61;41.63;99891.69;5397962;26;20808;-70
2024/04/16 05:45:32;;;;;;;1.90;0.60;;;;;;;18.59;41.68;99885.72;5395623;26;20006;-74
2024/04/16 05:47:58;;;;;;;3.03;0.80;;;;;;;18.51;41.51;99867.19;5399314;26;20069;-70
2024/04/16 05:50:23;;;;;;;2.53;0.50;;;;;;;18.65;41.76;99885.94;5399159;26;20069;-74
2024/04/16 05:52:48;;;;;;;2.92;0.55;;;;;;;18.66;41.64;99886.81;5398637;26;19999;-69
2024/04/16 05:55:14;;;;;;;1.80;0.50;;;;;;;18.57;41.69;99877.97;5398132;26;20000;-73
2024/04/16 05:57:39;;;;;;;2.15;0.60;;;;;;;18.71;41.63;99895.09;5398772;26;20072;-69
2024/04/16 06:00:05;;;;;;;2.53;0.68;;;;;;;18.65;41.67;99885.94;5398530;26;20008;-72
2024/04/16 06:02:31;;;;;;;1.92;0.60;;;;;;;18.62;41.47;99882.78;5397793;26;20088;-71
2024/04/16 06:04:56;;;;;;;2.40;0.63;;;;;;;18.72;41.62;99895.91;5398596;26;19995;-69
2024/04/16 06:07:21;;;;;;;2.40;0.70;;;;;;;18.58;41.65;99874.34;5399103;26;21077;-71
2024/04/16 06:09:48;;;;;;;1.58;0.70;;;;;;;18.70;41.69;99882.84;5396849;26;20014;-71
2024/04/16 06:12:15;;;;;;;1.47;0.60;;;;;;;18.81;41.70;99892.38;5396542;26;20000;-73
2024/04/16 06:14:40;;;;;;;1.25;0.40;;;;;;;18.79;41.55;99912.81;5377983;26;20229;-71
2024/04/16 06:17:05;;;;;;;0.95;0.40;;;;;;;18.83;41.45;99909.72;5377195;26;20103;-74
2024/04/16 06:19:30;;;;;;;1.35;0.50;;;;;;;18.84;41.65;99902.66;5377263;26;20615;-72
2024/04/16 06:21:56;;;;;;;1.58;0.55;;;;;;;18.73;41.64;99892.28;5378293;26;20059;-73
2024/04/16 06:24:21;;;;;;;1.65;0.50;;;;;;;18.87;41.71;99917.34;5397013;26;19995;-69
2024/04/16 06:26:46;;;;;;;1.95;0.50;;;;;;;18.72;41.34;99891.44;5398256;26;20395;-74
2024/04/16 06:29:12;;;;;;;2.97;0.50;;;;;;;18.87;41.44;99920.81;5396685;26;20022;-69
2024/04/16 06:31:37;;;;;;;2.25;0.75;;;;;;;18.82;41.63;99918.59;5395927;26;20031;-73
2024/04/16 06:34:03;;;;;;;2.60;0.50;;;;;;;18.82;41.41;99907.22;5397979;26;19998;-69
2024/04/16 06:36:28;;;;;;;4.13;0.77;;;;;;;18.83;41.82;99911.50;5397922;26;20192;-69
2024/04/16 06:38:54;;;;;;;2.90;0.80;;;;;;;18.44;41.66;99836.13;5398252;26;20019;-68
2024/04/16 06:41:19;;;;;;;2.80;0.90;;;;;;;18.74;41.95;99900.06;5398019;26;20010;-69
2024/04/16 06:43:44;;;;;;;2.53;0.57;;;;;;;18.82;41.98;99901.94;5397588;26;20070;-69
2024/04/16 06:46:10;;;;;;;2.60;0.80;;;;;;;18.83;41.94;99898.31;5398566;26;19996;-69
2024/04/16 06:48:35;;;;;;;3.30;0.70;;;;;;;18.77;42.39;99891.00;5398130;26;20497;-72
2024/04/16 06:51:01;;;;;;;2.85;0.70;;;;;;;18.76;42.55;99884.91;5397965;26;20092;-68
2024/04/16 06:53:26;;;;;;;3.00;0.80;;;;;;;18.62;42.55;99865.13;5398635;26;20068;-68
2024/04/16 06:56:00;;;;;;;3.80;0.70;;;;;;;18.79;42.61;99889.06;5394288;26;20453;-71
2024/04/16 06:58:25;;;;;;;2.38;0.70;;;;;;;18.85;42.71;99913.06;5398151;26;20364;-68
2024/04/16 07:00:50;;;;;;;3.20;0.95;;;;;;;18.80;42.68;99898.63;5397761;26;20010;-69
2024/04/16 07:03:16;;;;;;;2.53;0.57;;;;;;;18.86;42.64;99916.53;5395261;26;20004;-66
2024/04/16 07:05:41;;;;;;;2.72;0.88;;;;;;;18.85;42.84;99901.69;5397380;26;20878;-70
2024/04/16 07:08:06;;;;;;;2.30;0.65;;;;;;;18.93;43.24;99930.78;5398820;26;19991;-69
2024/04/16 07:10:32;;;;;;;2.92;0.70;;;;;;;18.87;43.31;99927.91;5397659;26;20002;-68
2024/04/16 07:12:57;;;;;;;2.10;0.55;;;;;;;18.90;43.22;99938.16;5455626;26;20000;-70
2024/04/16 07:15:22;;;;;;;1.80;0.60;;;;;;;18.79;43.43;99929.47;5397926;26;20454;-71
2024/04/16 07:17:49;;;;;;;2.83;0.93;;;;;;;18.81;43.35;99934.59;5397143;26;20006;-71
2024/04/16 07:20:14;;;;;;;2.88;0.82;;;;;;;18.79;43.50;99936.56;5398140;26;20006;-68
2024/04/16 07:22:40;;;;;;;3.50;0.65;;;;;;;18.91;43.88;99955.66;5397049;26;19992;-69
2024/04/16 07:25:05;;;;;;;2.28;0.70;;;;;;;18.93;43.55;99954.53;5396631;26;19995;-71
2024/04/16 07:27:30;;;;;;;3.70;0.70;;;;;;;18.94;43.33;99979.94;5396174;26;20036;-67
2024/04/16 07:29:56;;;;;;;3.67;1.00;;;;;;;18.81;43.48;99961.81;5400663;26;20010;-69
2024/04/16 07:32:22;;;;;;;1.50;0.60;;;;;;;18.83;43.39;99969.59;5399124;26;20010;-72
2024/04/16 07:34:47;;;;;;;2.90;0.80;;;;;;;18.86;43.72;99964.03;5401212;26;19999;-68
2024/04/16 07:37:13;;;;;;;4.15;0.88;;;;;;;18.97;43.65;99987.56;5401645;26;20065;-68
2024/04/16 07:39:38;;;;;;;4.13;0.90;;;;;;;18.75;43.89;99957.13;5400555;26;19991;-69
2024/04/16 07:42:03;;;;;;;3.40;0.80;;;;;;;18.93;43.86;99986.22;5400971;26;20330;-71
2024/04/16 07:44:29;;;;;;;3.78;1.27;;;;;;;18.96;44.04;99987.72;5401721;26;20031;-68
2024/04/16 07:46:55;;;;;;;3.75;1.23;;;;;;;18.95;43.72;99992.19;5400470;26;20006;-72
2024/04/16 07:49:21;;;;;;;3.88;0.98;;;;;;;18.98;43.91;99998.97;5402572;26;20012;-72
2024/04/16 07:51:46;;;;;;;3.42;0.82;;;;;;;18.98;43.98;100006.91;5401417;26;19996;-68
2024/04/16 07:54:11;;;;;;;5.10;0.80;;;;;;;18.88;43.76;99980.53;5402357;26;20520;-68
2024/04/16 07:56:37;;;;;;;5.88;0.90;;;;;;;18.98;44.08;99993.69;5401131;26;19995;-71
2024/04/16 07:59:02;;;;;;;3.88;0.93;;;;;;;18.88;43.77;99982.38;5400533;26;19996;-68
2024/04/16 08:01:27;;;;;;;3.15;0.80;;;;;;;18.98;43.82;100002.44;5401503;26;19995;-73
2024/04/16 08:03:53;;;;;;;2.50;0.85;;;;;;;18.91;43.85;99990.81;5401514;26;20003;-69
2024/04/16 08:06:18;;;;;;;3.58;0.90;;;;;;;19.00;43.75;100007.56;5398760;26;20098;-70
2024/04/16 08:08:43;;;;;;;4.55;0.73;;;;;;;19.01;44.15;100010.06;5395695;26;20008;-71
2024/04/16 08:11:09;;;;;;;3.80;1.17;;;;;;;19.02;44.01;100009.06;5400467;26;20093;-70
2024/04/16 08:13:34;;;;;;;3.30;0.80;;;;;;;18.91;43.87;99997.91;5399098;26;20061;-69
2024/04/16 08:15:59;;;;;;;3.38;0.95;;;;;;;18.99;44.26;100013.81;5399121;26;20014;-69
2024/04/16 08:18:25;;;;;;;3.47;0.82;;;;;;;19.01;44.06;100028.56;5401744;26;20843;-69
2024/04/16 08:20:50;;;;;;;5.65;1.33;;;;;;;18.99;44.55;100038.44;5398535;26;19999;-69
2024/04/16 08:23:15;;;;;;;5.43;1.10;;;;;;;18.95;44.71;100036.25;5399532;26;20072;-68
2024/04/16 08:25:41;;;;;;;3.63;0.75;;;;;;;18.99;44.19;100035.81;5399392;26;20000;-72
2024/04/16 08:28:06;;;;;;;2.85;0.80;;;;;;;18.96;44.50;100027.31;5399301;26;20472;-69
2024/04/16 08:30:31;;;;;;;3.53;0.82;;;;;;;18.93;44.51;100020.56;5400706;26;20406;-73
2024/04/16 08:32:57;;;;;;;7.63;1.05;;;;;;;19.01;44.19;100040.94;5399566;26;20000;-70
2024/04/16 08:35:32;;;;;;;5.80;1.40;;;;;;;18.96;44.34;100027.31;5393738;26;19992;-71
2024/04/16 08:37:58;;;;;;;4.47;0.95;;;;;;;18.90;44.46;100025.28;5394497;26;19991;-70
2024/04/16 08:40:23;;;;;;;4.18;0.85;;;;;;;18.94;44.14;100042.50;5392675;26;20136;-69
2024/04/16 08:42:52;;;;;;;2.45;0.68;;;;;;;18.95;44.46;100044.16;5387208;26;19996;-72
2024/04/16 08:45:20;;;;;;;4.65;0.73;;;;;;;19.05;44.73;100062.59;5394159;26;20341;-73
2024/04/16 08:47:47;;;;;;;3.92;0.75;;;;;;;19.01;44.19;100062.06;5395638;26;20081;-70
2024/04/16 08:50:14;;;;;;;2.80;0.70;;;;;;;18.94;44.41;100051.25;5393373;26;20023;-73
2024/04/16 08:52:39;;;;;;;4.50;0.88;;;;;;;18.98;44.52;100072.91;5390779;26;20832;-72
2024/04/16 08:55:06;;;;;;;5.47;1.40;;;;;;;19.03;44.52;100082.03;5394236;26;19999;-70
2024/04/16 08:57:33;;;;;;;3.45;0.77;;;;;;;18.94;44.56;100050.41;5394520;26;20067;-70
2024/04/16 08:59:58;;;;;;;4.65;1.20;;;;;;;18.80;44.39;100031.44;5394260;26;20008;-74
2024/04/16 09:02:26;;;;;;;6.43;1.08;;;;;;;18.98;44.66;100065.00;5392319;26;20067;-71
2024/04/16 09:04:56;;;;;;;4.22;0.90;;;;;;;19.05;44.38;100097.72;5389084;26;19996;-70
2024/04/16 09:07:23;;;;;;;5.18;0.93;;;;;;;18.92;44.72;100079.59;5391440;26;19999;-72
2024/04/16 09:09:48;;;;;;;4.40;1.05;;;;;;;19.00;44.71;100084.16;5387567;26;20005;-72
2024/04/16 09:12:13;;;;;;;5.47;1.00;;;;;;;19.09;44.77;100114.97;5389163;26;19996;-74
2024/04/16 09:14:39;;;;;;;4.73;1.10;;;;;;;18.96;44.70;100096.81;5391406;26;20068;-73
2024/04/16 09:17:04;;;;;;;5.43;1.17;;;;;;;18.98;44.66;100102.78;5390182;26;20563;-73
2024/04/16 09:19:30;;;;;;;3.42;0.65;;;;;;;19.02;44.67;100111.22;5392606;26;20321;-72
2024/04/16 09:21:59;;;;;;;2.92;0.80;;;;;;;19.10;45.01;100121.88;5390348;26;20067;-73
2024/04/16 09:24:24;;;;;;;3.33;0.88;;;;;;;19.05;44.82;100110.94;5386089;26;20003;-74
2024/04/16 09:26:50;;;;;;;4.03;0.90;;;;;;;19.16;44.96;100136.31;5389393;26;20394;-74
2024/04/16 09:29:28;;;;;;;4.53;1.00;;;;;;;19.05;45.06;100105.66;5392925;26;20413;-74
2024/04/16 09:32:00;;;;;;;4.18;0.90;;;;;;;19.17;44.99;100138.00;5393985;26;20014;-72
2024/04/16 09:34:26;;;;;;;6.85;1.08;;;;;;;19.18;44.87;100139.63;5397451;26;20019;-71
2024/04/16 09:36:51;;;;;;;4.95;0.77;;;;;;;19.09;45.05;100130.81;5396863;26;20078;-73
2024/04/16 09:39:19;;;;;;;3.25;0.85;;;;;;;19.19;45.01;100143.94;5395980;26;20005;-71
2024/04/16 09:41:47;;;;;;;4.05;0.98;;;;;;;19.10;44.96;100123.69;5399957;26;19995;-71
2024/04/16 09:44:14;;;;;;;3.80;0.98;;;;;;;19.16;45.00;100145.06;5400672;26;20007;-71
2024/04/16 09:46:41;;;;;;;5.97;0.90;;;;;;;19.13;45.08;100134.78;5397775;26;20015;-71
2024/04/16 09:49:09;;;;;;;4.80;1.08;;;;;;;19.17;44.92;100149.38;5397178;26;19995;-70
2024/04/16 09:51:37;;;;;;;5.20;1.45;;;;;;;19.14;45.40;100130.34;5394380;26;19996;-73
2024/04/16 09:54:03;;;;;;;5.25;1.00;;;;;;;19.21;45.18;100150.72;5396812;26;20016;-73
2024/04/16 09:56:33;;;;;;;5.05;0.85;;;;;;;19.18;45.23;100144.91;5397657;26;19996;-72
2024/04/16 09:59:01;;;;;;;3.83;1.00;;;;;;;19.24;44.87;100154.88;5396476;26;19999;-70
2024/04/16 10:01:28;;;;;;;4.43;0.75;;;;;;;19.19;45.32;100149.22;5396240;26;20387;-72
2024/04/16 10:03:55;;;;;;;8.93;0.98;;;;;;;19.02;45.02;100133.19;5395821;26;20000;-70
2024/04/16 10:06:21;;;;;;;4.47;0.90;;;;;;;19.16;45.76;100160.09;5398372;26;19995;-74
2024/04/16 10:08:48;;;;;;;4.82;0.70;;;;;;;19.17;45.57;100162.59;5396350;26;19995;-72
2024/04/16 10:11:15;;;;;;;5.07;0.90;;;;;;;19.15;45.55;100159.25;5396845;26;19995;-73
2024/04/16 10:13:41;;;;;;;3.92;1.00;;;;;;;19.11;45.35;100163.16;5395908;26;20364;-75
2024/04/16 10:16:15;;;;;;;3.72;0.88;;;;;;;19.11;45.36;100165.00;5397282;26;20084;-74
2024/04/16 10:18:41;;;;;;;5.80;0.82;;;;;;;19.05;45.17;100174.31;5398843;26;20007;-75
2024/04/16 10:21:07;;;;;;;7.15;1.20;;;;;;;19.13;45.39;100184.16;5395170;26;20054;-73
2024/04/16 10:23:37;;;;;;;3.30;0.80;;;;;;;19.24;45.21;100217.47;5396729;26;20322;-72
2024/04/16 10:26:04;;;;;;;3.60;1.00;;;;;;;19.06;45.46;100173.34;5396585;26;19999;-72
2024/04/16 10:28:31;;;;;;;3.85;1.02;;;;;;;19.29;45.51;100215.22;5394335;26;20019;-74
2024/04/16 10:31:01;;;;;;;3.13;0.65;;;;;;;19.23;45.39;100208.69;5397778;26;20051;-77
2024/04/16 10:33:27;;;;;;;3.90;0.90;;;;;;;19.15;45.47;100188.31;5394501;26;20405;-75
2024/04/16 10:35:54;;;;;;;6.20;1.30;;;;;;;19.27;45.18;100230.38;5396101;26;20078;-71
2024/04/16 10:38:19;;;;;;;6.97;1.08;;;;;;;19.20;45.48;100240.69;5397437;26;20011;-69
2024/04/16 10:40:57;;;;;;;5.85;1.20;;;;;;;19.32;45.13;100236.88;5395446;26;20004;-70
2024/04/16 10:43:24;;;;;;;4.22;1.00;;;;;;;19.25;45.20;100242.88;5397331;26;20047;-72
2024/04/16 10:45:49;;;;;;;4.38;0.95;;;;;;;19.30;45.49;100262.63;5390870;26;19995;-72
2024/04/16 10:48:18;;;;;;;4.68;1.00;;;;;;;19.21;45.61;100237.91;5394586;26;20014;-73
2024/04/16 10:50:44;;;;;;;2.97;1.00;;;;;;;19.29;45.24;100260.13;5394388;26;20011;-72
2024/04/16 10:53:11;;;;;;;4.95;0.73;;;;;;;19.35;45.05;100263.00;5395727;26;20081;-72
2024/04/16 10:55:37;;;;;;;4.45;0.75;;;;;;;19.21;45.62;100251.09;5395428;26;20003;-72
2024/04/16 10:58:03;;;;;;;4.13;0.80;;;;;;;19.38;45.31;100283.03;5394039;26;20082;-70
2024/04/16 11:00:29;;;;;;;3.15;0.70;;;;;;;19.34;45.27;100265.78;5395784;26;20011;-70
2024/04/16 11:02:57;;;;;;;5.07;0.98;;;;;;;19.42;45.13;100286.19;5392819;26;19996;-70
2024/04/16 11:05:23;;;;;;;4.68;0.80;;;;;;;19.42;45.22;100283.56;5402555;26;20896;-71
2024/04/16 11:07:49;;;;;;;3.65;1.08;;;;;;;19.31;45.08;100276.66;5404481;26;21152;-72
2024/04/16 11:10:14;;;;;;;3.97;0.88;;;;;;;19.42;45.04;100299.41;5400506;26;20986;-71
2024/04/16 11:12:40;;;;;;;3.28;0.85;;;;;;;19.39;44.86;100304.03;5405709;26;19998;-69
2024/04/16 11:15:06;;;;;;;3.30;0.82;;;;;;;19.31;44.85;100284.56;5404643;26;20337;-71
2024/04/16 11:17:31;;;;;;;3.42;0.80;;;;;;;19.26;44.65;100282.38;5402721;26;20425;-71
2024/04/16 11:19:57;;;;;;;3.17;0.73;;;;;;;19.26;44.56;100279.72;5402811;26;20548;-69
2024/04/16 11:22:24;;;;;;;6.00;0.93;;;;;;;19.37;44.70;100305.97;5403490;26;20093;-71